sensor_id;sensor_type;location;lat;lon;timestamp;pressure;altitude;pressure_sealevel;temperature;humidity
16690;BME280;8458;52.220;9.884;2023-10-09T00:01:19;101205.59;;;14.63;76.19
16690;BME280;8458;52.220;9.884;2023-10-09T00:03:46;101199.72;;;14.69;76.98
16690;BME280;8458;52.220;9.884;2023-10-09T00:06:17;101208.38;;;14.68;77.44
16690;BME280;8458;52.220;9.884;2023-10-09T00:08:49;101195.81;;;14.70;77.60
16690;BME280;8458;52.220;9.884;2023-10-09T00:11:18;101193.00;;;14.76;77.99
16690;BME280;8458;52.220;9.884;2023-10-09T00:13:47;101186.03;;;14.78;78.20
16690;BME280;8458;52.220;9.884;2023-10-09T00:16:20;101183.78;;;14.80;78.17
16690;BME280;8458;52.220;9.884;2023-10-09T00:18:58;101176.81;;;14.83;78.05
16690;BME280;8458;52.220;9.884;2023-10-09T00:21:39;101157.28;;;14.83;77.76
16690;BME280;8458;52.220;9.884;2023-10-09T00:24:05;101148.34;;;14.86;77.36
16690;BME280;8458;52.220;9.884;2023-10-09T00:26:39;101130.72;;;14.85;76.23
16690;BME280;8458;52.220;9.884;2023-10-09T00:29:10;101135.78;;;14.83;76.09
16690;BME280;8458;52.220;9.884;2023-10-09T00:31:43;101142.19;;;14.79;75.46
16690;BME280;8458;52.220;9.884;2023-10-09T00:34:15;101134.66;;;14.74;75.07
16690;BME280;8458;52.220;9.884;2023-10-09T00:36:45;101119.31;;;14.72;75.07
16690;BME280;8458;52.220;9.884;2023-10-09T00:39:16;101098.94;;;14.76;75.25
16690;BME280;8458;52.220;9.884;2023-10-09T00:41:55;101101.16;;;14.79;75.59
16690;BME280;8458;52.220;9.884;2023-10-09T00:44:24;101118.47;;;14.81;75.76
16690;BME280;8458;52.220;9.884;2023-10-09T00:47:04;101120.13;;;14.82;75.39
16690;BME280;8458;52.220;9.884;2023-10-09T00:49:36;101110.63;;;14.83;75.38
16690;BME280;8458;52.220;9.884;2023-10-09T00:52:08;101095.56;;;14.84;75.29
16690;BME280;8458;52.220;9.884;2023-10-09T00:54:42;101098.91;;;14.86;75.27
16690;BME280;8458;52.220;9.884;2023-10-09T00:57:16;101093.31;;;14.86;75.32
16690;BME280;8458;52.220;9.884;2023-10-09T00:59:44;101092.75;;;14.90;75.48
16690;BME280;8458;52.220;9.884;2023-10-09T01:02:15;101082.13;;;14.92;75.81
16690;BME280;8458;52.220;9.884;2023-10-09T01:04:44;101068.16;;;14.92;75.95
16690;BME280;8458;52.220;9.884;2023-10-09T01:07:11;101063.69;;;14.96;76.18
16690;BME280;8458;52.220;9.884;2023-10-09T01:09:41;101048.34;;;14.93;76.74
16690;BME280;8458;52.220;9.884;2023-10-09T01:12:10;101051.41;;;14.92;76.77
16690;BME280;8458;52.220;9.884;2023-10-09T01:14:42;101060.06;;;14.90;76.81
16690;BME280;8458;52.220;9.884;2023-10-09T01:17:08;101067.59;;;14.95;76.74
16690;BME280;8458;52.220;9.884;2023-10-09T01:19:38;101077.13;;;14.94;76.94
16690;BME280;8458;52.220;9.884;2023-10-09T01:22:04;101079.34;;;14.97;77.29
16690;BME280;8458;52.220;9.884;2023-10-09T01:24:39;101087.72;;;14.92;77.45
16690;BME280;8458;52.220;9.884;2023-10-09T01:27:06;101085.22;;;14.85;77.68
16690;BME280;8458;52.220;9.884;2023-10-09T01:29:38;101077.69;;;14.85;78.25
16690;BME280;8458;52.220;9.884;2023-10-09T01:32:07;101076.56;;;14.86;78.70
16690;BME280;8458;52.220;9.884;2023-10-09T01:34:42;101078.50;;;14.91;78.66
16690;BME280;8458;52.220;9.884;2023-10-09T01:37:11;101071.00;;;14.86;79.21
16690;BME280;8458;52.220;9.884;2023-10-09T01:39:45;101079.34;;;14.92;79.15
16690;BME280;8458;52.220;9.884;2023-10-09T01:42:13;101078.25;;;14.87;78.94
16690;BME280;8458;52.220;9.884;2023-10-09T01:44:49;101075.19;;;14.89;79.02
16690;BME280;8458;52.220;9.884;2023-10-09T01:47:17;101074.31;;;14.88;79.66
16690;BME280;8458;52.220;9.884;2023-10-09T01:49:44;101080.19;;;14.92;79.98
16690;BME280;8458;52.220;9.884;2023-10-09T01:52:14;101069.03;;;14.92;80.31
16690;BME280;8458;52.220;9.884;2023-10-09T01:54:42;101068.16;;;14.92;80.63
16690;BME280;8458;52.220;9.884;2023-10-09T01:57:14;101069.06;;;14.82;80.69
16690;BME280;8458;52.220;9.884;2023-10-09T01:59:46;101051.72;;;14.85;80.88
16690;BME280;8458;52.220;9.884;2023-10-09T02:02:15;101052.03;;;14.78;81.32
16690;BME280;8458;52.220;9.884;2023-10-09T02:04:51;101034.44;;;14.78;81.55
16690;BME280;8458;52.220;9.884;2023-10-09T02:07:19;101023.31;;;14.73;81.84
16690;BME280;8458;52.220;9.884;2023-10-09T02:09:53;101015.25;;;14.66;82.61
16690;BME280;8458;52.220;9.884;2023-10-09T02:12:21;101026.94;;;14.58;83.33
16690;BME280;8458;52.220;9.884;2023-10-09T02:14:50;101023.31;;;14.62;83.19
16690;BME280;8458;52.220;9.884;2023-10-09T02:17:19;101019.16;;;14.65;83.42
16690;BME280;8458;52.220;9.884;2023-10-09T02:19:50;101017.47;;;14.69;83.40
16690;BME280;8458;52.220;9.884;2023-10-09T02:22:17;101016.06;;;14.66;83.95
16690;BME280;8458;52.220;9.884;2023-10-09T02:24:45;100992.31;;;14.74;84.14
16690;BME280;8458;52.220;9.884;2023-10-09T02:27:24;100987.84;;;14.78;84.49
16690;BME280;8458;52.220;9.884;2023-10-09T02:30:11;100985.06;;;14.78;85.13
16690;BME280;8458;52.220;9.884;2023-10-09T02:32:52;100969.13;;;14.79;85.62
16690;BME280;8458;52.220;9.884;2023-10-09T02:35:31;100957.97;;;14.79;86.29
16690;BME280;8458;52.220;9.884;2023-10-09T02:38:02;100963.88;;;14.72;87.13
16690;BME280;8458;52.220;9.884;2023-10-09T02:40:31;100955.22;;;14.74;87.85
16690;BME280;8458;52.220;9.884;2023-10-09T02:43:07;100941.78;;;14.76;88.26
16690;BME280;8458;52.220;9.884;2023-10-09T02:45:37;100939.25;;;14.79;88.33
16690;BME280;8458;52.220;9.884;2023-10-09T02:48:15;100947.63;;;14.79;88.67
16690;BME280;8458;52.220;9.884;2023-10-09T02:50:44;100946.56;;;14.75;88.85
16690;BME280;8458;52.220;9.884;2023-10-09T02:53:11;100942.63;;;14.76;88.45
16690;BME280;8458;52.220;9.884;2023-10-09T02:55:44;100933.38;;;14.81;88.46
16690;BME280;8458;52.220;9.884;2023-10-09T02:58:29;100929.75;;;14.80;89.00
16690;BME280;8458;52.220;9.884;2023-10-09T03:00:57;100938.13;;;14.80;89.26
16690;BME280;8458;52.220;9.884;2023-10-09T03:03:23;100934.81;;;14.78;89.42
16690;BME280;8458;52.220;9.884;2023-10-09T03:05:50;100925.28;;;14.79;89.20
16690;BME280;8458;52.220;9.884;2023-10-09T03:08:17;100921.09;;;14.82;89.30
16690;BME280;8458;52.220;9.884;2023-10-09T03:10:44;100919.72;;;14.79;89.19
16690;BME280;8458;52.220;9.884;2023-10-09T03:13:11;100917.50;;;14.81;89.40
16690;BME280;8458;52.220;9.884;2023-10-09T03:15:41;100919.72;;;14.84;89.54
16690;BME280;8458;52.220;9.884;2023-10-09T03:18:08;100918.56;;;14.85;89.88
16690;BME280;8458;52.220;9.884;2023-10-09T03:20:34;100908.53;;;14.84;90.30
16690;BME280;8458;52.220;9.884;2023-10-09T03:23:02;100907.41;;;14.85;90.90
16690;BME280;8458;52.220;9.884;2023-10-09T03:25:31;100907.97;;;14.82;91.26
16690;BME280;8458;52.220;9.884;2023-10-09T03:27:58;100900.75;;;14.81;91.66
16690;BME280;8458;52.220;9.884;2023-10-09T03:30:24;100891.81;;;14.79;92.60
16690;BME280;8458;52.220;9.884;2023-10-09T03:32:52;100880.63;;;14.79;92.80
16690;BME280;8458;52.220;9.884;2023-10-09T03:35:19;100885.41;;;14.79;93.35
16690;BME280;8458;52.220;9.884;2023-10-09T03:37:52;100872.81;;;14.81;93.88
16690;BME280;8458;52.220;9.884;2023-10-09T03:40:22;100866.97;;;14.78;94.39
16690;BME280;8458;52.220;9.884;2023-10-09T03:42:48;100858.31;;;14.79;94.95
16690;BME280;8458;52.220;9.884;2023-10-09T03:45:16;100858.88;;;14.81;95.32
16690;BME280;8458;52.220;9.884;2023-10-09T03:47:52;100857.47;;;14.79;95.71
16690;BME280;8458;52.220;9.884;2023-10-09T03:50:23;100863.06;;;14.79;96.05
16690;BME280;8458;52.220;9.884;2023-10-09T03:52:55;100866.97;;;14.78;96.32
16690;BME280;8458;52.220;9.884;2023-10-09T03:55:22;100861.13;;;14.74;97.42
16690;BME280;8458;52.220;9.884;2023-10-09T03:57:52;100858.09;;;14.70;98.23
16690;BME280;8458;52.220;9.884;2023-10-09T04:00:19;100845.53;;;14.68;99.07
16690;BME280;8458;52.220;9.884;2023-10-09T04:02:53;100847.22;;;14.69;99.93
16690;BME280;8458;52.220;9.884;2023-10-09T04:05:20;100851.47;;;14.61;100.00
16690;BME280;8458;52.220;9.884;2023-10-09T04:07:47;100855.63;;;14.59;100.00
16690;BME280;8458;52.220;9.884;2023-10-09T04:10:14;100857.88;;;14.62;100.00
16690;BME280;8458;52.220;9.884;2023-10-09T04:12:58;100853.66;;;14.59;100.00
16690;BME280;8458;52.220;9.884;2023-10-09T04:15:25;100866.53;;;14.55;100.00
16690;BME280;8458;52.220;9.884;2023-10-09T04:17:57;100864.56;;;14.56;100.00
16690;BME280;8458;52.220;9.884;2023-10-09T04:20:23;100872.66;;;14.57;100.00
16690;BME280;8458;52.220;9.884;2023-10-09T04:23:07;100874.59;;;14.62;100.00
16690;BME280;8458;52.220;9.884;2023-10-09T04:25:34;100876.25;;;14.58;100.00
16690;BME280;8458;52.220;9.884;2023-10-09T04:28:15;100871.81;;;14.51;100.00
16690;BME280;8458;52.220;9.884;2023-10-09T04:30:45;100874.38;;;14.48;100.00
16690;BME280;8458;52.220;9.884;2023-10-09T04:33:19;100864.63;;;14.45;100.00
16690;BME280;8458;52.220;9.884;2023-10-09T04:36:01;100866.56;;;14.45;100.00
16690;BME280;8458;52.220;9.884;2023-10-09T04:38:47;100870.22;;;14.45;100.00
16690;BME280;8458;52.220;9.884;2023-10-09T04:41:21;100869.03;;;14.51;100.00
16690;BME280;8458;52.220;9.884;2023-10-09T04:43:53;100882.44;;;14.49;100.00
16690;BME280;8458;52.220;9.884;2023-10-09T04:46:29;100891.69;;;14.45;100.00
16690;BME280;8458;52.220;9.884;2023-10-09T04:49:10;100887.78;;;14.46;100.00
16690;BME280;8458;52.220;9.884;2023-10-09T04:51:52;100878.00;;;14.43;100.00
16690;BME280;8458;52.220;9.884;2023-10-09T04:54:30;100867.97;;;14.47;100.00
16690;BME280;8458;52.220;9.884;2023-10-09T04:57:04;100870.97;;;14.56;100.00
16690;BME280;8458;52.220;9.884;2023-10-09T04:59:43;100862.88;;;14.55;100.00
16690;BME280;8458;52.220;9.884;2023-10-09T05:02:13;100872.94;;;14.56;100.00
16690;BME280;8458;52.220;9.884;2023-10-09T05:04:46;100864.84;;;14.64;100.00
16690;BME280;8458;52.220;9.884;2023-10-09T05:07:16;100862.28;;;14.68;100.00
16690;BME280;8458;52.220;9.884;2023-10-09T05:10:12;100860.63;;;14.67;100.00
16690;BME280;8458;52.220;9.884;2023-10-09T05:12:41;100860.31;;;14.68;100.00
16690;BME280;8458;52.220;9.884;2023-10-09T05:15:22;100872.34;;;14.69;100.00
16690;BME280;8458;52.220;9.884;2023-10-09T05:17:52;100874.56;;;14.72;100.00
16690;BME280;8458;52.220;9.884;2023-10-09T05:20:23;100865.03;;;14.73;100.00
16690;BME280;8458;52.220;9.884;2023-10-09T05:23:06;100874.03;;;14.65;100.00
16690;BME280;8458;52.220;9.884;2023-10-09T05:25:51;100875.97;;;14.69;100.00
16690;BME280;8458;52.220;9.884;2023-10-09T05:28:18;100871.19;;;14.70;100.00
16690;BME280;8458;52.220;9.884;2023-10-09T05:30:56;100899.69;;;14.67;100.00
16690;BME280;8458;52.220;9.884;2023-10-09T05:33:32;100911.94;;;14.71;100.00
16690;BME280;8458;52.220;9.884;2023-10-09T05:36:02;100909.69;;;14.73;100.00
16690;BME280;8458;52.220;9.884;2023-10-09T05:38:42;100908.63;;;14.69;100.00
16690;BME280;8458;52.220;9.884;2023-10-09T05:41:23;100916.72;;;14.70;100.00
16690;BME280;8458;52.220;9.884;2023-10-09T05:44:07;100890.72;;;14.75;100.00
16690;BME280;8458;52.220;9.884;2023-10-09T05:46:51;100893.53;;;14.75;100.00
16690;BME280;8458;52.220;9.884;2023-10-09T05:49:48;100895.72;;;14.78;100.00
16690;BME280;8458;52.220;9.884;2023-10-09T05:52:48;100891.56;;;14.76;100.00
16690;BME280;8458;52.220;9.884;2023-10-09T05:55:31;100887.94;;;14.70;100.00
16690;BME280;8458;52.220;9.884;2023-10-09T05:58:16;100879.03;;;14.68;100.00
16690;BME280;8458;52.220;9.884;2023-10-09T06:01:00;100872.31;;;14.74;100.00
16690;BME280;8458;52.220;9.884;2023-10-09T06:03:47;100883.19;;;14.76;100.00
16690;BME280;8458;52.220;9.884;2023-10-09T06:06:20;100913.06;;;14.75;100.00
16690;BME280;8458;52.220;9.884;2023-10-09T06:09:09;100936.22;;;14.76;100.00
16690;BME280;8458;52.220;9.884;2023-10-09T06:11:54;100961.06;;;14.72;100.00
16690;BME280;8458;52.220;9.884;2023-10-09T06:14:42;100947.13;;;14.72;100.00
16690;BME280;8458;52.220;9.884;2023-10-09T06:17:43;100927.56;;;14.77;100.00
16690;BME280;8458;52.220;9.884;2023-10-09T06:20:10;100913.56;;;14.82;100.00
16690;BME280;8458;52.220;9.884;2023-10-09T06:22:50;100931.69;;;14.85;100.00
16690;BME280;8458;52.220;9.884;2023-10-09T06:25:24;100966.63;;;14.77;100.00
16690;BME280;8458;52.220;9.884;2023-10-09T06:27:58;100915.81;;;14.80;100.00
16690;BME280;8458;52.220;9.884;2023-10-09T06:30:23;100920.81;;;14.83;100.00
16690;BME280;8458;52.220;9.884;2023-10-09T06:32:52;100915.78;;;14.85;100.00
16690;BME280;8458;52.220;9.884;2023-10-09T06:35:23;100912.97;;;14.85;100.00
16690;BME280;8458;52.220;9.884;2023-10-09T06:37:56;100918.56;;;14.85;100.00
16690;BME280;8458;52.220;9.884;2023-10-09T06:40:47;100913.25;;;14.89;100.00
16690;BME280;8458;52.220;9.884;2023-10-09T06:43:42;100924.97;;;14.91;100.00
16690;BME280;8458;52.220;9.884;2023-10-09T06:46:18;100928.56;;;14.92;100.00
16690;BME280;8458;52.220;9.884;2023-10-09T06:49:02;100935.00;;;14.92;100.00
16690;BME280;8458;52.220;9.884;2023-10-09T06:51:54;100934.72;;;14.88;100.00
16690;BME280;8458;52.220;9.884;2023-10-09T06:54:38;100943.97;;;14.84;100.00
16690;BME280;8458;52.220;9.884;2023-10-09T06:57:06;100940.91;;;14.85;100.00
16690;BME280;8458;52.220;9.884;2023-10-09T06:59:38;100942.56;;;14.86;100.00
16690;BME280;8458;52.220;9.884;2023-10-09T07:02:28;100938.09;;;14.91;100.00
16690;BME280;8458;52.220;9.884;2023-10-09T07:04:56;100937.25;;;14.90;100.00
16690;BME280;8458;52.220;9.884;2023-10-09T07:07:35;100936.94;;;14.97;100.00
16690;BME280;8458;52.220;9.884;2023-10-09T07:10:15;100933.06;;;14.93;100.00
16690;BME280;8458;52.220;9.884;2023-10-09T07:12:59;100933.00;;;14.98;100.00
16690;BME280;8458;52.220;9.884;2023-10-09T07:15:27;100928.56;;;14.92;100.00
16690;BME280;8458;52.220;9.884;2023-10-09T07:18:26;100936.94;;;14.92;100.00
16690;BME280;8458;52.220;9.884;2023-10-09T07:21:13;100935.84;;;14.93;100.00
16690;BME280;8458;52.220;9.884;2023-10-09T07:23:43;100932.19;;;14.97;100.00
16690;BME280;8458;52.220;9.884;2023-10-09T07:26:14;100931.94;;;14.94;100.00
16690;BME280;8458;52.220;9.884;2023-10-09T07:28:52;100926.06;;;14.95;100.00
16690;BME280;8458;52.220;9.884;2023-10-09T07:31:40;100924.09;;;14.96;100.00
16690;BME280;8458;52.220;9.884;2023-10-09T07:34:10;100922.41;;;14.95;100.00
16690;BME280;8458;52.220;9.884;2023-10-09T07:36:51;100914.59;;;14.97;100.00
16690;BME280;8458;52.220;9.884;2023-10-09T07:39:21;100907.31;;;15.01;100.00
16690;BME280;8458;52.220;9.884;2023-10-09T07:41:48;100907.88;;;15.03;100.00
16690;BME280;8458;52.220;9.884;2023-10-09T07:44:41;100914.28;;;15.03;100.00
16690;BME280;8458;52.220;9.884;2023-10-09T07:47:18;100911.78;;;15.02;100.00
16690;BME280;8458;52.220;9.884;2023-10-09T07:49:48;100913.69;;;15.06;100.00
16690;BME280;8458;52.220;9.884;2023-10-09T07:52:18;100912.88;;;15.06;100.00
16690;BME280;8458;52.220;9.884;2023-10-09T07:54:47;100909.22;;;15.11;100.00
16690;BME280;8458;52.220;9.884;2023-10-09T07:57:16;100902.78;;;15.10;100.00
16690;BME280;8458;52.220;9.884;2023-10-09T07:59:44;100898.88;;;15.11;100.00
16690;BME280;8458;52.220;9.884;2023-10-09T08:02:28;100896.59;;;15.13;100.00
16690;BME280;8458;52.220;9.884;2023-10-09T08:04:59;100896.66;;;15.08;100.00
16690;BME280;8458;52.220;9.884;2023-10-09T08:07:32;100889.38;;;15.12;100.00
16690;BME280;8458;52.220;9.884;2023-10-09T08:10:03;100884.31;;;15.14;100.00
16690;BME280;8458;52.220;9.884;2023-10-09T08:12:47;100884.38;;;15.09;100.00
16690;BME280;8458;52.220;9.884;2023-10-09T08:15:47;100878.72;;;15.14;100.00
16690;BME280;8458;52.220;9.884;2023-10-09T08:18:21;100875.34;;;15.17;100.00
16690;BME280;8458;52.220;9.884;2023-10-09T08:20:54;100882.91;;;15.17;100.00
16690;BME280;8458;52.220;9.884;2023-10-09T08:23:34;100873.44;;;15.13;100.00
16690;BME280;8458;52.220;9.884;2023-10-09T08:26:15;100867.84;;;15.13;100.00
16690;BME280;8458;52.220;9.884;2023-10-09T08:28:53;100855.84;;;15.12;100.00
16690;BME280;8458;52.220;9.884;2023-10-09T08:31:42;100863.66;;;15.15;100.00
16690;BME280;8458;52.220;9.884;2023-10-09T08:34:10;100860.28;;;15.18;100.00
16690;BME280;8458;52.220;9.884;2023-10-09T08:36:48;100853.56;;;15.19;100.00
16690;BME280;8458;52.220;9.884;2023-10-09T08:39:17;100860.28;;;15.18;100.00
16690;BME280;8458;52.220;9.884;2023-10-09T08:41:50;100856.31;;;15.24;100.00
16690;BME280;8458;52.220;9.884;2023-10-09T08:44:19;100859.06;;;15.30;100.00
16690;BME280;8458;52.220;9.884;2023-10-09T08:46:49;100852.94;;;15.28;100.00
16690;BME280;8458;52.220;9.884;2023-10-09T08:49:16;100857.94;;;15.31;100.00
16690;BME280;8458;52.220;9.884;2023-10-09T08:51:44;100848.97;;;15.34;100.00
16690;BME280;8458;52.220;9.884;2023-10-09T08:54:12;100839.78;;;15.28;100.00
16690;BME280;8458;52.220;9.884;2023-10-09T08:56:40;100851.78;;;15.34;100.00
16690;BME280;8458;52.220;9.884;2023-10-09T08:59:14;100853.97;;;15.37;100.00
16690;BME280;8458;52.220;9.884;2023-10-09T09:01:43;100843.34;;;15.39;100.00
16690;BME280;8458;52.220;9.884;2023-10-09T09:04:11;100848.34;;;15.42;100.00
16690;BME280;8458;52.220;9.884;2023-10-09T09:06:38;100841.91;;;15.41;100.00
16690;BME280;8458;52.220;9.884;2023-10-09T09:09:10;100852.25;;;15.41;100.00
16690;BME280;8458;52.220;9.884;2023-10-09T09:11:40;100841.06;;;15.41;100.00
16690;BME280;8458;52.220;9.884;2023-10-09T09:14:14;100844.44;;;15.43;100.00
16690;BME280;8458;52.220;9.884;2023-10-09T09:16:45;100853.88;;;15.47;100.00
16690;BME280;8458;52.220;9.884;2023-10-09T09:19:14;100846.94;;;15.45;100.00
16690;BME280;8458;52.220;9.884;2023-10-09T09:21:50;100851.41;;;15.40;100.00
16690;BME280;8458;52.220;9.884;2023-10-09T09:24:20;100856.66;;;15.47;100.00
16690;BME280;8458;52.220;9.884;2023-10-09T09:27:00;100853.88;;;15.47;100.00
16690;BME280;8458;52.220;9.884;2023-10-09T09:29:39;100852.75;;;15.48;100.00
16690;BME280;8458;52.220;9.884;2023-10-09T09:32:07;100861.66;;;15.50;100.00
16690;BME280;8458;52.220;9.884;2023-10-09T09:34:47;100854.13;;;15.51;100.00
16690;BME280;8458;52.220;9.884;2023-10-09T09:37:19;100856.03;;;15.55;100.00
16690;BME280;8458;52.220;9.884;2023-10-09T09:39:46;100859.06;;;15.59;100.00
16690;BME280;8458;52.220;9.884;2023-10-09T09:42:17;100853.44;;;15.64;100.00
16690;BME280;8458;52.220;9.884;2023-10-09T09:44:51;100853.19;;;15.60;100.00
16690;BME280;8458;52.220;9.884;2023-10-09T09:47:17;100847.53;;;15.66;100.00
16690;BME280;8458;52.220;9.884;2023-10-09T09:49:51;100837.97;;;15.72;100.00
16690;BME280;8458;52.220;9.884;2023-10-09T09:52:18;100850.53;;;15.74;100.00
16690;BME280;8458;52.220;9.884;2023-10-09T09:54:49;100866.47;;;15.74;100.00
16690;BME280;8458;52.220;9.884;2023-10-09T09:57:18;100895.03;;;15.71;100.00
16690;BME280;8458;52.220;9.884;2023-10-09T09:59:51;100908.44;;;15.69;100.00
16690;BME280;8458;52.220;9.884;2023-10-09T10:02:24;100900.63;;;15.71;100.00
16690;BME280;8458;52.220;9.884;2023-10-09T10:04:56;100907.84;;;15.72;100.00
16690;BME280;8458;52.220;9.884;2023-10-09T10:07:26;100899.72;;;15.75;100.00
16690;BME280;8458;52.220;9.884;2023-10-09T10:09:56;100892.16;;;15.76;100.00
16690;BME280;8458;52.220;9.884;2023-10-09T10:12:49;100893.28;;;15.75;100.00
16690;BME280;8458;52.220;9.884;2023-10-09T10:15:58;100893.88;;;15.72;100.00
16690;BME280;8458;52.220;9.884;2023-10-09T10:18:30;100900.28;;;15.77;100.00
16690;BME280;8458;52.220;9.884;2023-10-09T10:21:12;100905.06;;;15.77;100.00
16690;BME280;8458;52.220;9.884;2023-10-09T10:23:42;100905.53;;;15.84;100.00
16690;BME280;8458;52.220;9.884;2023-10-09T10:26:17;100899.94;;;15.84;100.00
16690;BME280;8458;52.220;9.884;2023-10-09T10:29:13;100912.22;;;15.88;100.00
16690;BME280;8458;52.220;9.884;2023-10-09T10:31:54;100913.38;;;15.82;100.00
16690;BME280;8458;52.220;9.884;2023-10-09T10:34:21;100909.44;;;15.83;100.00
16690;BME280;8458;52.220;9.884;2023-10-09T10:36:50;100898.88;;;15.80;100.00
16690;BME280;8458;52.220;9.884;2023-10-09T10:39:24;100907.28;;;15.75;100.00
16690;BME280;8458;52.220;9.884;2023-10-09T10:42:08;100906.72;;;15.78;100.00
16690;BME280;8458;52.220;9.884;2023-10-09T10:44:40;100898.34;;;15.73;100.00
16690;BME280;8458;52.220;9.884;2023-10-09T10:47:10;100900.03;;;15.74;100.00
16690;BME280;8458;52.220;9.884;2023-10-09T10:49:50;100897.75;;;15.76;100.00
16690;BME280;8458;52.220;9.884;2023-10-09T10:52:22;100896.66;;;15.72;100.00
16690;BME280;8458;52.220;9.884;2023-10-09T10:55:08;100898.94;;;15.70;100.00
16690;BME280;8458;52.220;9.884;2023-10-09T10:57:57;100897.22;;;15.74;100.00
16690;BME280;8458;52.220;9.884;2023-10-09T11:00:26;100896.09;;;15.75;100.00
16690;BME280;8458;52.220;9.884;2023-10-09T11:03:17;100898.34;;;15.73;100.00
16690;BME280;8458;52.220;9.884;2023-10-09T11:05:46;100903.94;;;15.73;100.00
16690;BME280;8458;52.220;9.884;2023-10-09T11:08:23;100891.63;;;15.74;100.00
16690;BME280;8458;52.220;9.884;2023-10-09T11:10:52;100892.22;;;15.71;100.00
16690;BME280;8458;52.220;9.884;2023-10-09T11:13:23;100886.34;;;15.72;100.00
16690;BME280;8458;52.220;9.884;2023-10-09T11:15:58;100884.91;;;15.75;100.00
16690;BME280;8458;52.220;9.884;2023-10-09T11:18:40;100882.69;;;15.77;100.00
16690;BME280;8458;52.220;9.884;2023-10-09T11:21:13;100889.66;;;15.74;100.00
16690;BME280;8458;52.220;9.884;2023-10-09T11:24:07;100887.16;;;15.73;100.00
16690;BME280;8458;52.220;9.884;2023-10-09T11:26:51;100874.00;;;15.79;100.00
16690;BME280;8458;52.220;9.884;2023-10-09T11:29:22;100875.97;;;15.78;100.00
16690;BME280;8458;52.220;9.884;2023-10-09T11:32:15;100877.66;;;15.74;100.00
16690;BME280;8458;52.220;9.884;2023-10-09T11:34:43;100882.09;;;15.75;100.00
16690;BME280;8458;52.220;9.884;2023-10-09T11:37:17;100876.50;;;15.80;100.00
16690;BME280;8458;52.220;9.884;2023-10-09T11:39:59;100873.41;;;15.82;100.00
16690;BME280;8458;52.220;9.884;2023-10-09T11:42:27;100875.41;;;15.76;100.00
16690;BME280;8458;52.220;9.884;2023-10-09T11:45:04;100882.09;;;15.80;100.00
16690;BME280;8458;52.220;9.884;2023-10-09T11:47:45;100897.22;;;15.79;100.00
16690;BME280;8458;52.220;9.884;2023-10-09T11:50:19;100879.91;;;15.77;100.00
16690;BME280;8458;52.220;9.884;2023-10-09T11:52:57;100884.34;;;15.78;100.00
16690;BME280;8458;52.220;9.884;2023-10-09T11:55:44;100891.63;;;15.79;100.00
16690;BME280;8458;52.220;9.884;2023-10-09T11:58:14;100886.03;;;15.79;100.00
16690;BME280;8458;52.220;9.884;2023-10-09T12:00:48;100886.03;;;15.79;100.00
16690;BME280;8458;52.220;9.884;2023-10-09T12:03:16;100884.56;;;15.82;100.00
16690;BME280;8458;52.220;9.884;2023-10-09T12:05:47;100886.56;;;15.76;100.00
16690;BME280;8458;52.220;9.884;2023-10-09T12:08:13;100886.03;;;15.79;100.00
16690;BME280;8458;52.220;9.884;2023-10-09T12:10:41;100888.22;;;15.82;100.00
16690;BME280;8458;52.220;9.884;2023-10-09T12:13:09;100886.84;;;15.80;100.00
16690;BME280;8458;52.220;9.884;2023-10-09T12:15:35;100890.16;;;15.82;100.00
16690;BME280;8458;52.220;9.884;2023-10-09T12:18:06;100893.28;;;15.80;100.00
16690;BME280;8458;52.220;9.884;2023-10-09T12:20:40;100903.31;;;15.81;100.00
16690;BME280;8458;52.220;9.884;2023-10-09T12:23:06;100909.44;;;15.83;100.00
16690;BME280;8458;52.220;9.884;2023-10-09T12:25:38;100899.94;;;15.84;100.00
16690;BME280;8458;52.220;9.884;2023-10-09T12:28:05;100896.38;;;15.79;100.00
16690;BME280;8458;52.220;9.884;2023-10-09T12:30:34;100891.56;;;15.84;100.00
16690;BME280;8458;52.220;9.884;2023-10-09T12:33:05;100891.03;;;15.82;100.00
16690;BME280;8458;52.220;9.884;2023-10-09T12:35:36;100893.28;;;15.80;100.00
16690;BME280;8458;52.220;9.884;2023-10-09T12:38:03;100894.34;;;15.84;100.00
16690;BME280;8458;52.220;9.884;2023-10-09T12:40:34;100895.47;;;15.83;100.00
16690;BME280;8458;52.220;9.884;2023-10-09T12:43:01;100893.22;;;15.85;100.00
16690;BME280;8458;52.220;9.884;2023-10-09T12:45:27;100899.66;;;15.86;100.00
16690;BME280;8458;52.220;9.884;2023-10-09T12:47:59;100895.44;;;15.88;100.00
16690;BME280;8458;52.220;9.884;2023-10-09T12:50:28;100903.81;;;15.88;100.00
16690;BME280;8458;52.220;9.884;2023-10-09T12:52:55;100897.34;;;15.93;100.00
16690;BME280;8458;52.220;9.884;2023-10-09T12:55:27;100892.03;;;15.91;100.00
16690;BME280;8458;52.220;9.884;2023-10-09T12:57:59;100897.66;;;15.86;100.00
16690;BME280;8458;52.220;9.884;2023-10-09T13:00:31;100904.13;;;15.87;100.00
16690;BME280;8458;52.220;9.884;2023-10-09T13:03:00;100906.84;;;15.92;100.00
16690;BME280;8458;52.220;9.884;2023-10-09T13:05:27;100900.66;;;15.95;100.00
16690;BME280;8458;52.220;9.884;2023-10-09T13:07:53;100892.56;;;15.93;100.00
16690;BME280;8458;52.220;9.884;2023-10-09T13:10:21;100882.47;;;15.98;100.00
16690;BME280;8458;52.220;9.884;2023-10-09T13:12:49;100887.50;;;15.95;100.00
16690;BME280;8458;52.220;9.884;2023-10-09T13:15:20;100887.50;;;15.95;100.00
16690;BME280;8458;52.220;9.884;2023-10-09T13:17:47;100894.25;;;15.94;100.00
16690;BME280;8458;52.220;9.884;2023-10-09T13:20:15;100892.81;;;15.97;100.00
16690;BME280;8458;52.220;9.884;2023-10-09T13:22:42;100884.38;;;16.02;100.00
16690;BME280;8458;52.220;9.884;2023-10-09T13:25:10;100893.28;;;16.04;100.00
16690;BME280;8458;52.220;9.884;2023-10-09T13:27:41;100887.94;;;16.08;100.00